Time;durP1;ratioP1;P1;durP2;ratioP2;P2;SDS_P1;SDS_P2;PMS_P1;PMS_P2;Temp;Humidity;BMP_temperature;BMP_pressure;BME280_temperature;BME280_humidity;BME280_pressure;Samples;Min_cycle;Max_cycle;Signal;HPM_P1;HPM_P2
2023/10/20 00:00:41;;;;;;;;;;;13.10;72.70;;;;;;4667299;30;114603;-79
2023/10/20 00:03:08;;;;;;;;;;;13.10;72.50;;;;;;4653062;30;114618;-80
2023/10/20 00:05:36;;;;;;;;;;;13.20;73.10;;;;;;4652659;30;114428;-80
2023/10/20 00:08:04;;;;;;;;;;;13.10;73.00;;;;;;4653222;30;114991;-80
2023/10/20 00:10:35;;;;;;;;;;;13.20;72.70;;;;;;4652405;30;114714;-80
2023/10/20 00:13:04;;;;;;;;;;;13.20;72.80;;;;;;4652952;30;114406;-79
2023/10/20 00:15:33;;;;;;;;;;;13.20;72.90;;;;;;4654509;30;114558;-80
2023/10/20 00:18:01;;;;;;;;;;;13.20;72.60;;;;;;4653042;30;114935;-80
2023/10/20 00:20:28;;;;;;;;;;;13.20;72.30;;;;;;4653262;30;114746;-80
2023/10/20 00:22:56;;;;;;;;;;;13.30;72.00;;;;;;4654061;30;114470;-80
2023/10/20 00:25:24;;;;;;;;;;;13.30;72.10;;;;;;4654185;30;114400;-79
2023/10/20 00:27:51;;;;;;;;;;;13.30;72.00;;;;;;4653252;30;114903;-80
2023/10/20 00:30:18;;;;;;;;;;;13.30;71.70;;;;;;4653136;30;114407;-79
2023/10/20 00:32:47;;;;;;;;;;;13.30;71.30;;;;;;4652063;30;114417;-79
2023/10/20 00:35:15;;;;;;;;;;;13.30;71.00;;;;;;4653022;30;114495;-79
2023/10/20 00:37:42;;;;;;;;;;;13.20;70.60;;;;;;4653050;30;115347;-79
2023/10/20 00:40:09;;;;;;;;;;;13.10;70.30;;;;;;4651613;30;115314;-80
2023/10/20 00:42:37;;;;;;;;;;;13.20;70.20;;;;;;4652181;30;114490;-79
2023/10/20 00:45:05;;;;;;;;;;;13.10;70.00;;;;;;4652337;30;115334;-80
2023/10/20 00:47:32;;;;;;;;;;;13.00;69.80;;;;;;4652808;30;116131;-78
2023/10/20 00:49:59;;;;;;;;;;;13.00;69.70;;;;;;4651498;30;115356;-79
2023/10/20 00:52:26;;;;;;;;;;;12.90;69.50;;;;;;4652497;30;114551;-78
2023/10/20 00:54:53;;;;;;;;;;;13.00;69.40;;;;;;4652291;30;114321;-79
2023/10/20 00:57:21;;;;;;;;;;;13.00;69.30;;;;;;4651793;30;115101;-78
2023/10/20 00:59:48;;;;;;;;;;;12.90;69.10;;;;;;4623118;30;116762;-78
2023/10/20 01:02:15;;;;;;;;;;;12.90;69.00;;;;;;4652510;30;114651;-79
2023/10/20 01:04:43;;;;;;;;;;;12.80;68.90;;;;;;4653727;30;114441;-80
2023/10/20 01:07:10;;;;;;;;;;;12.80;68.80;;;;;;4652219;30;115017;-79
2023/10/20 01:09:37;;;;;;;;;;;12.80;68.60;;;;;;4639557;30;114669;-79
2023/10/20 01:12:04;;;;;;;;;;;12.80;68.60;;;;;;4653582;30;114535;-78
2023/10/20 01:14:31;;;;;;;;;;;12.80;68.50;;;;;;4667004;30;114526;-79
2023/10/20 01:16:59;;;;;;;;;;;12.80;68.30;;;;;;4653012;30;115045;-79
2023/10/20 01:19:26;;;;;;;;;;;12.80;68.20;;;;;;4652703;30;114705;-79
2023/10/20 01:21:53;;;;;;;;;;;12.80;68.20;;;;;;4653047;30;114413;-79
2023/10/20 01:24:20;;;;;;;;;;;12.70;68.00;;;;;;4653352;30;114318;-80
2023/10/20 01:26:47;;;;;;;;;;;12.70;68.00;;;;;;4665703;30;114890;-80
2023/10/20 01:29:14;;;;;;;;;;;12.70;68.00;;;;;;4652099;30;114939;-80
2023/10/20 01:31:42;;;;;;;;;;;12.60;68.00;;;;;;4652569;30;114595;-80
2023/10/20 01:34:09;;;;;;;;;;;12.60;68.00;;;;;;4653439;30;114403;-80
2023/10/20 01:36:37;;;;;;;;;;;12.60;68.00;;;;;;4652176;30;115023;-77
2023/10/20 01:39:04;;;;;;;;;;;12.50;67.80;;;;;;4652366;30;114658;-79
2023/10/20 01:41:32;;;;;;;;;;;12.50;67.80;;;;;;4667879;30;114694;-78
2023/10/20 01:43:59;;;;;;;;;;;12.60;67.80;;;;;;4668298;30;114772;-79
2023/10/20 01:46:26;;;;;;;;;;;12.50;67.60;;;;;;4680327;30;115148;-79
2023/10/20 01:48:53;;;;;;;;;;;12.60;67.50;;;;;;4685168;30;114690;-80
2023/10/20 01:51:20;;;;;;;;;;;12.60;67.50;;;;;;4685494;30;114633;-80
2023/10/20 01:53:47;;;;;;;;;;;12.60;67.50;;;;;;4685451;30;114419;-78
2023/10/20 01:56:14;;;;;;;;;;;12.60;67.30;;;;;;4669378;30;114962;-79
2023/10/20 01:58:41;;;;;;;;;;;12.60;67.20;;;;;;4683935;30;115125;-79
2023/10/20 02:01:08;;;;;;;;;;;12.60;67.10;;;;;;4671050;30;114713;-79
2023/10/20 02:03:36;;;;;;;;;;;12.60;67.00;;;;;;4685419;30;114659;-79
2023/10/20 02:06:04;;;;;;;;;;;12.60;67.00;;;;;;4669624;30;115002;-79
2023/10/20 02:08:34;;;;;;;;;;;12.70;66.90;;;;;;4670369;30;114713;-79
2023/10/20 02:11:01;;;;;;;;;;;12.70;66.90;;;;;;4670970;30;114489;-79
2023/10/20 02:13:28;;;;;;;;;;;12.70;66.80;;;;;;4670924;30;114624;-79
2023/10/20 02:15:56;;;;;;;;;;;12.70;66.70;;;;;;4670299;30;114966;-79
2023/10/20 02:18:23;;;;;;;;;;;12.70;66.60;;;;;;4667561;30;114817;-79
2023/10/20 02:21:03;;;;;;;;;;;12.70;66.60;;;;;;4682673;30;114612;-79
2023/10/20 02:23:31;;;;;;;;;;;12.70;66.60;;;;;;4654811;30;114671;-79
2023/10/20 02:25:59;;;;;;;;;;;12.70;66.50;;;;;;4669253;30;115596;-79
2023/10/20 02:28:27;;;;;;;;;;;12.70;66.50;;;;;;4668771;30;114855;-79
2023/10/20 02:30:55;;;;;;;;;;;12.70;66.30;;;;;;4686372;30;114344;-79
2023/10/20 02:33:22;;;;;;;;;;;12.70;66.30;;;;;;4671640;30;114612;-80
2023/10/20 02:35:50;;;;;;;;;;;12.70;66.20;;;;;;4685698;30;114920;-79
2023/10/20 02:38:22;;;;;;;;;;;12.70;66.20;;;;;;4671178;30;115266;-79
2023/10/20 02:40:50;;;;;;;;;;;12.70;66.10;;;;;;4671221;30;114609;-79
2023/10/20 02:43:17;;;;;;;;;;;12.70;66.10;;;;;;4672680;30;114435;-79
2023/10/20 02:45:54;;;;;;;;;;;12.80;66.00;;;;;;4671084;30;116654;-79
2023/10/20 02:48:21;;;;;;;;;;;12.70;65.90;;;;;;4670522;30;114641;-79
2023/10/20 02:50:48;;;;;;;;;;;12.70;65.90;;;;;;4672882;30;114630;-78
2023/10/20 02:53:15;;;;;;;;;;;12.70;65.90;;;;;;4686932;30;114669;-79
2023/10/20 02:55:43;;;;;;;;;;;12.70;65.80;;;;;;4670683;30;115529;-79
2023/10/20 02:58:10;;;;;;;;;;;12.70;65.80;;;;;;4671387;30;115416;-79
2023/10/20 03:00:43;;;;;;;;;;;12.70;65.80;;;;;;4671529;30;114506;-78
2023/10/20 03:03:11;;;;;;;;;;;12.70;65.70;;;;;;4686336;30;114372;-79
2023/10/20 03:05:43;;;;;;;;;;;12.60;65.80;;;;;;4670761;30;115070;-80
2023/10/20 03:08:10;;;;;;;;;;;12.70;65.80;;;;;;4670437;30;114725;-80
2023/10/20 03:10:38;;;;;;;;;;;12.70;65.80;;;;;;4671634;30;114244;-79
2023/10/20 03:13:05;;;;;;;;;;;12.70;65.70;;;;;;4672563;30;114399;-78
2023/10/20 03:15:35;;;;;;;;;;;12.70;65.70;;;;;;4670983;30;116354;-79
2023/10/20 03:18:02;;;;;;;;;;;12.70;65.60;;;;;;4671227;30;114676;-79
2023/10/20 03:20:30;;;;;;;;;;;12.70;65.60;;;;;;4670809;30;114513;-79
2023/10/20 03:22:58;;;;;;;;;;;12.70;65.50;;;;;;4670738;30;114306;-80
2023/10/20 03:25:26;;;;;;;;;;;12.70;65.40;;;;;;4670896;30;115015;-80
2023/10/20 03:27:53;;;;;;;;;;;12.80;65.40;;;;;;4670159;30;114705;-80
2023/10/20 03:30:20;;;;;;;;;;;12.80;65.30;;;;;;4670796;30;114412;-80
2023/10/20 03:32:50;;;;;;;;;;;12.80;65.40;;;;;;4671868;30;114442;-80
2023/10/20 03:35:17;;;;;;;;;;;12.70;65.30;;;;;;4670543;30;115656;-77
2023/10/20 03:37:45;;;;;;;;;;;12.70;65.30;;;;;;4670777;30;114910;-80
2023/10/20 03:40:16;;;;;;;;;;;12.70;65.20;;;;;;4671523;30;114450;-79
2023/10/20 03:42:45;;;;;;;;;;;12.70;65.20;;;;;;4670065;30;114793;-79
2023/10/20 03:45:15;;;;;;;;;;;12.70;65.10;;;;;;4670539;30;114999;-80
2023/10/20 03:47:44;;;;;;;;;;;12.80;65.10;;;;;;4670482;30;114593;-80
2023/10/20 03:50:16;;;;;;;;;;;12.80;65.10;;;;;;4670022;30;115140;-79
2023/10/20 03:52:46;;;;;;;;;;;12.80;65.00;;;;;;4671702;30;114295;-79
2023/10/20 03:55:16;;;;;;;;;;;12.80;65.00;;;;;;4669268;30;115489;-80
2023/10/20 03:57:43;;;;;;;;;;;12.70;65.00;;;;;;4669108;30;114659;-80
2023/10/20 04:00:29;;;;;;;;;;;12.80;65.00;;;;;;4670579;30;114434;-80
2023/10/20 04:02:56;;;;;;;;;;;12.80;64.90;;;;;;4671137;30;114466;-80
2023/10/20 04:05:24;;;;;;;;;;;12.80;64.90;;;;;;4670026;30;116248;-80
2023/10/20 04:07:51;;;;;;;;;;;12.80;64.80;;;;;;4670189;30;114822;-80
2023/10/20 04:10:21;;;;;;;;;;;12.80;64.80;;;;;;4671038;30;114667;-80
2023/10/20 04:12:48;;;;;;;;;;;12.70;64.80;;;;;;4670055;30;114661;-80
2023/10/20 04:15:15;;;;;;;;;;;12.70;64.80;;;;;;4670316;30;115345;-81
2023/10/20 04:17:43;;;;;;;;;;;12.70;64.80;;;;;;4669301;30;114697;-79
2023/10/20 04:20:15;;;;;;;;;;;12.80;64.80;;;;;;4669498;30;114554;-79
2023/10/20 04:22:43;;;;;;;;;;;12.70;64.70;;;;;;4664807;30;114486;-79
2023/10/20 04:25:13;;;;;;;;;;;12.80;64.70;;;;;;4652350;30;114962;-79
2023/10/20 05:07:53;;;;;;;;;;;12.70;64.30;;;;;;4652106;30;114854;-79
2023/10/20 05:10:20;;;;;;;;;;;12.70;64.30;;;;;;4652361;30;114626;-79
2023/10/20 05:12:47;;;;;;;;;;;12.70;64.30;;;;;;4651678;30;114620;-79
2023/10/20 05:15:14;;;;;;;;;;;12.70;64.30;;;;;;4652904;30;114444;-80
2023/10/20 05:17:43;;;;;;;;;;;12.70;64.30;;;;;;4650556;30;115312;-79
2023/10/20 05:20:12;;;;;;;;;;;12.70;64.20;;;;;;4621663;30;114944;-80
2023/10/20 05:22:42;;;;;;;;;;;12.70;64.20;;;;;;4652836;30;114268;-79
2023/10/20 05:25:15;;;;;;;;;;;12.70;64.20;;;;;;4652937;30;114959;-80
2023/10/20 05:27:43;;;;;;;;;;;12.70;64.20;;;;;;4651997;30;114982;-80
2023/10/20 05:30:16;;;;;;;;;;;12.70;64.20;;;;;;4650219;30;115163;-80
2023/10/20 05:32:43;;;;;;;;;;;12.70;64.20;;;;;;4651382;30;114542;-80
2023/10/20 05:35:10;;;;;;;;;;;12.70;64.10;;;;;;4652607;30;115063;-79
2023/10/20 05:37:38;;;;;;;;;;;12.70;64.10;;;;;;4650829;30;114979;-79
2023/10/20 05:40:06;;;;;;;;;;;12.70;64.10;;;;;;4650884;30;114793;-80
2023/10/20 05:42:33;;;;;;;;;;;12.70;64.10;;;;;;4651189;30;114790;-79
2023/10/20 05:45:09;;;;;;;;;;;12.70;64.10;;;;;;4651270;30;114583;-79
2023/10/20 05:47:37;;;;;;;;;;;12.70;64.10;;;;;;4649397;30;115616;-79
2023/10/20 05:50:06;;;;;;;;;;;12.70;64.10;;;;;;4650296;30;115640;-79
2023/10/20 05:52:35;;;;;;;;;;;12.80;64.10;;;;;;4651263;30;114618;-78
2023/10/20 05:55:03;;;;;;;;;;;12.70;64.00;;;;;;4651247;30;114595;-81
2023/10/20 05:57:32;;;;;;;;;;;12.80;64.00;;;;;;4650511;30;115224;-79
2023/10/20 05:59:59;;;;;;;;;;;12.80;63.90;;;;;;4650597;30;114709;-79
2023/10/20 06:02:59;;;;;;;;;;;12.80;63.90;;;;;;4649727;30;114806;-81
2023/10/20 06:05:30;;;;;;;;;;;12.80;63.90;;;;;;4650120;30;114837;-79
2023/10/20 06:07:57;;;;;;;;;;;12.80;63.90;;;;;;4584893;30;114965;-79
2023/10/20 06:10:24;;;;;;;;;;;12.90;63.80;;;;;;4630419;30;115325;-79
2023/10/20 06:12:52;;;;;;;;;;;12.80;63.80;;;;;;4634696;30;115052;-78
2023/10/20 06:15:22;;;;;;;;;;;12.80;63.80;;;;;;4634477;30;114570;-79
2023/10/20 06:17:49;;;;;;;;;;;12.80;63.80;;;;;;4629136;30;115441;-79
2023/10/20 06:20:18;;;;;;;;;;;12.80;63.90;;;;;;4654133;30;114764;-79
2023/10/20 06:22:45;;;;;;;;;;;12.80;64.00;;;;;;4641748;30;114527;-79
2023/10/20 06:25:12;;;;;;;;;;;12.70;64.00;;;;;;4629211;30;114441;-79
2023/10/20 06:27:42;;;;;;;;;;;12.70;64.00;;;;;;4632382;30;114590;-80
2023/10/20 06:30:21;;;;;;;;;;;12.80;64.00;;;;;;4645656;30;115242;-80
2023/10/20 06:35:44;;;;;;;;;;;12.90;63.90;;;;;;4644880;30;114351;-80
2023/10/20 06:38:11;;;;;;;;;;;12.90;63.90;;;;;;4632837;30;116308;-80
2023/10/20 06:40:39;;;;;;;;;;;12.90;63.90;;;;;;4631887;30;115758;-80
2023/10/20 06:43:09;;;;;;;;;;;12.90;64.10;;;;;;4634047;30;114601;-79
2023/10/20 06:45:36;;;;;;;;;;;12.80;64.10;;;;;;4646781;30;114592;-80
2023/10/20 06:48:04;;;;;;;;;;;12.90;64.20;;;;;;4645342;30;116042;-81
2023/10/20 06:50:31;;;;;;;;;;;12.90;64.20;;;;;;4632944;30;114653;-80
2023/10/20 06:52:59;;;;;;;;;;;12.90;64.20;;;;;;4632807;30;114563;-81
2023/10/20 06:55:27;;;;;;;;;;;12.90;64.20;;;;;;4641208;30;114598;-79
2023/10/20 06:58:17;;;;;;;;;;;12.90;64.30;;;;;;4648222;30;115220;-79
2023/10/20 07:00:44;;;;;;;;;;;12.90;64.40;;;;;;4649560;30;114833;-81
2023/10/20 07:03:12;;;;;;;;;;;12.90;64.40;;;;;;4649704;30;114646;-81
2023/10/20 07:05:40;;;;;;;;;;;13.00;64.40;;;;;;4648405;30;117141;-80
2023/10/20 07:08:07;;;;;;;;;;;13.00;64.50;;;;;;4662755;30;115057;-80
2023/10/20 07:10:37;;;;;;;;;;;13.00;64.40;;;;;;4647535;30;119115;-80
2023/10/20 07:13:07;;;;;;;;;;;13.10;64.40;;;;;;4648939;30;114686;-81
2023/10/20 07:15:34;;;;;;;;;;;13.20;64.40;;;;;;4615033;30;114803;-80
2023/10/20 07:18:02;;;;;;;;;;;13.20;64.50;;;;;;4635006;30;115046;-81
2023/10/20 07:20:38;;;;;;;;;;;13.30;64.60;;;;;;4635185;30;114722;-81
2023/10/20 07:23:06;;;;;;;;;;;13.30;64.50;;;;;;4635620;30;114748;-81
2023/10/20 07:25:33;;;;;;;;;;;13.50;64.60;;;;;;4653487;30;114438;-80
2023/10/20 07:28:00;;;;;;;;;;;13.60;64.60;;;;;;4648401;30;114947;-81
2023/10/20 07:30:28;;;;;;;;;;;13.60;64.50;;;;;;4647011;30;114850;-81
2023/10/20 07:32:55;;;;;;;;;;;13.70;64.50;;;;;;4636009;30;114516;-81
2023/10/20 07:35:22;;;;;;;;;;;13.70;64.50;;;;;;4634464;30;114971;-81
2023/10/20 07:37:49;;;;;;;;;;;13.70;64.50;;;;;;4634397;30;115555;-81
2023/10/20 07:40:18;;;;;;;;;;;13.80;64.60;;;;;;4634838;30;114716;-81
2023/10/20 07:42:46;;;;;;;;;;;13.80;64.70;;;;;;4635938;30;114668;-81
2023/10/20 07:45:14;;;;;;;;;;;13.80;64.70;;;;;;4636183;30;114383;-81
2023/10/20 07:47:47;;;;;;;;;;;13.80;64.90;;;;;;4633650;30;118135;-81
2023/10/20 07:50:14;;;;;;;;;;;13.80;64.80;;;;;;4632949;30;116205;-81
2023/10/20 07:52:41;;;;;;;;;;;13.80;64.90;;;;;;4635957;30;114594;-82
2023/10/20 07:55:08;;;;;;;;;;;13.80;64.90;;;;;;4654317;30;114706;-83
2023/10/20 07:57:35;;;;;;;;;;;13.80;65.00;;;;;;4638707;30;115611;-80
2023/10/20 08:00:03;;;;;;;;;;;13.80;65.10;;;;;;4634165;30;114551;-80
2023/10/20 08:02:38;;;;;;;;;;;13.80;65.10;;;;;;4635642;30;114701;-80
2023/10/20 08:05:05;;;;;;;;;;;13.90;65.10;;;;;;4634755;30;117597;-80
2023/10/20 08:07:33;;;;;;;;;;;14.00;65.20;;;;;;4632758;30;119221;-81
2023/10/20 08:10:00;;;;;;;;;;;14.00;65.20;;;;;;4648710;30;115282;-80
2023/10/20 08:12:27;;;;;;;;;;;14.00;65.30;;;;;;4643170;30;114484;-80
2023/10/20 08:14:55;;;;;;;;;;;14.00;65.30;;;;;;4636660;30;114631;-80
2023/10/20 08:17:23;;;;;;;;;;;14.00;65.30;;;;;;4634924;30;115108;-81
2023/10/20 08:19:50;;;;;;;;;;;14.00;65.70;;;;;;4633929;30;114598;-81
2023/10/20 08:22:17;;;;;;;;;;;14.10;65.70;;;;;;4648736;30;114502;-81
2023/10/20 08:24:44;;;;;;;;;;;14.10;65.60;;;;;;4636297;30;114658;-82
2023/10/20 08:27:11;;;;;;;;;;;14.10;65.80;;;;;;4646618;30;114919;-82
2023/10/20 08:29:39;;;;;;;;;;;14.20;65.90;;;;;;4633573;30;114631;-82
2023/10/20 08:32:06;;;;;;;;;;;14.20;65.80;;;;;;4636145;30;114711;-81
2023/10/20 08:34:33;;;;;;;;;;;14.30;65.80;;;;;;4647916;30;114695;-80
2023/10/20 08:37:02;;;;;;;;;;;14.30;65.80;;;;;;4634368;30;115241;-79
2023/10/20 08:39:30;;;;;;;;;;;14.50;65.90;;;;;;4642209;30;114696;-80
2023/10/20 08:41:59;;;;;;;;;;;14.50;65.80;;;;;;4645559;30;114561;-80
2023/10/20 08:44:26;;;;;;;;;;;14.60;66.00;;;;;;4634782;30;117371;-80
2023/10/20 08:46:53;;;;;;;;;;;14.70;66.10;;;;;;4640655;30;115077;-79
2023/10/20 08:49:20;;;;;;;;;;;14.80;66.20;;;;;;4634888;30;115726;-80
2023/10/20 08:51:51;;;;;;;;;;;14.90;66.50;;;;;;4604239;30;115150;-81
2023/10/20 08:54:24;;;;;;;;;;;15.20;66.70;;;;;;4632025;30;114381;-82
2023/10/20 08:56:55;;;;;;;;;;;15.40;66.50;;;;;;4630923;30;115678;-86
2023/10/20 08:59:22;;;;;;;;;;;15.60;66.40;;;;;;4625528;30;115247;-82
2023/10/20 09:01:51;;;;;;;;;;;15.70;66.50;;;;;;4632722;30;114658;-81
2023/10/20 09:04:27;;;;;;;;;;;15.80;66.50;;;;;;4634843;30;114583;-81
2023/10/20 09:06:55;;;;;;;;;;;15.90;66.50;;;;;;4632898;30;118197;-81
2023/10/20 09:09:23;;;;;;;;;;;16.10;66.50;;;;;;4634754;30;114714;-82
2023/10/20 09:11:50;;;;;;;;;;;16.30;67.30;;;;;;4648988;30;114433;-82
2023/10/20 09:14:17;;;;;;;;;;;16.50;67.00;;;;;;4635584;30;114415;-82
2023/10/20 09:16:44;;;;;;;;;;;16.60;66.90;;;;;;4632727;30;114944;-82
2023/10/20 09:19:11;;;;;;;;;;;16.70;67.00;;;;;;4647902;30;114659;-82
2023/10/20 09:21:41;;;;;;;;;;;16.80;66.80;;;;;;4634918;30;114374;-82
2023/10/20 09:24:09;;;;;;;;;;;16.90;66.70;;;;;;4648622;30;114624;-81
2023/10/20 09:26:36;;;;;;;;;;;17.00;66.70;;;;;;4632880;30;115130;-82
2023/10/20 09:29:07;;;;;;;;;;;17.10;66.70;;;;;;4633536;30;114673;-83
2023/10/20 09:31:36;;;;;;;;;;;17.20;66.60;;;;;;4635327;30;114594;-82
2023/10/20 09:34:07;;;;;;;;;;;17.20;66.50;;;;;;4639705;30;115804;-82
2023/10/20 09:36:35;;;;;;;;;;;17.30;66.40;;;;;;4638498;30;117774;-81
2023/10/20 09:39:03;;;;;;;;;;;17.30;66.30;;;;;;4648622;30;114443;-85
2023/10/20 09:41:30;;;;;;;;;;;17.30;66.10;;;;;;4605932;30;115350;-83
2023/10/20 09:44:10;;;;;;;;;;;17.40;66.30;;;;;;4634244;30;114629;-81
2023/10/20 09:46:41;;;;;;;;;;;17.40;66.10;;;;;;4630350;30;115449;-81
2023/10/20 09:49:18;;;;;;;;;;;17.30;66.10;;;;;;4646931;30;116494;-83
2023/10/20 09:51:47;;;;;;;;;;;17.40;66.20;;;;;;4661814;30;115011;-82
2023/10/20 09:54:22;;;;;;;;;;;17.30;66.00;;;;;;4633854;30;114705;-82
2023/10/20 09:56:50;;;;;;;;;;;17.30;66.10;;;;;;4634597;30;115244;-82
2023/10/20 09:59:20;;;;;;;;;;;17.30;66.20;;;;;;4634229;30;114965;-82
2023/10/20 10:01:55;;;;;;;;;;;17.30;66.30;;;;;;4663598;30;114618;-81
2023/10/20 10:04:27;;;;;;;;;;;17.30;66.30;;;;;;4638111;30;114469;-82
2023/10/20 10:06:55;;;;;;;;;;;17.30;66.30;;;;;;4647019;30;115347;-81
2023/10/20 10:09:34;;;;;;;;;;;17.30;66.30;;;;;;4633928;30;115598;-83
2023/10/20 10:12:07;;;;;;;;;;;17.30;66.30;;;;;;4633381;30;114646;-80
2023/10/20 10:14:34;;;;;;;;;;;17.40;66.30;;;;;;4633812;30;114773;-80
2023/10/20 10:17:06;;;;;;;;;;;17.50;66.30;;;;;;4632383;30;115008;-82
2023/10/20 10:19:34;;;;;;;;;;;17.50;66.40;;;;;;4647090;30;115217;-81
2023/10/20 10:22:01;;;;;;;;;;;17.50;66.30;;;;;;4634924;30;114550;-82
2023/10/20 10:24:31;;;;;;;;;;;17.60;66.40;;;;;;4646675;30;114546;-81
2023/10/20 10:27:06;;;;;;;;;;;17.70;66.30;;;;;;4632412;30;117365;-81
2023/10/20 10:29:53;;;;;;;;;;;17.60;66.20;;;;;;4632037;30;114608;-81
2023/10/20 10:32:21;;;;;;;;;;;17.70;66.10;;;;;;4647632;30;114843;-81
2023/10/20 10:34:49;;;;;;;;;;;17.80;66.00;;;;;;4635086;30;114390;-82
2023/10/20 10:37:25;;;;;;;;;;;17.80;65.90;;;;;;4633756;30;114701;-82
2023/10/20 10:39:52;;;;;;;;;;;17.80;65.70;;;;;;4632285;30;117148;-82
2023/10/20 10:42:19;;;;;;;;;;;17.90;65.60;;;;;;4659908;30;114671;-81
2023/10/20 10:44:46;;;;;;;;;;;17.90;65.50;;;;;;4633552;30;114529;-81
2023/10/20 10:47:19;;;;;;;;;;;18.00;65.40;;;;;;4634077;30;115071;-81
2023/10/20 10:49:47;;;;;;;;;;;18.00;65.40;;;;;;4661041;30;116574;-81
2023/10/20 10:52:14;;;;;;;;;;;18.10;65.30;;;;;;4664701;30;114262;-81
2023/10/20 10:54:41;;;;;;;;;;;18.10;65.20;;;;;;4636117;30;117104;-81
2023/10/20 10:57:09;;;;;;;;;;;18.10;64.90;;;;;;4636485;30;116262;-82
2023/10/20 10:59:37;;;;;;;;;;;18.20;64.80;;;;;;4636886;30;114669;-80
2023/10/20 11:02:05;;;;;;;;;;;18.20;64.70;;;;;;4635263;30;114518;-82
2023/10/20 11:04:33;;;;;;;;;;;18.30;64.80;;;;;;4636882;30;114410;-82
2023/10/20 11:07:01;;;;;;;;;;;18.30;64.60;;;;;;4634229;30;118541;-82
2023/10/20 11:09:29;;;;;;;;;;;18.30;64.60;;;;;;4649240;30;115631;-81
2023/10/20 11:11:56;;;;;;;;;;;18.40;64.50;;;;;;4635805;30;114401;-80
2023/10/20 11:14:24;;;;;;;;;;;18.50;64.30;;;;;;4637305;30;114620;-82
2023/10/20 11:16:51;;;;;;;;;;;18.50;64.10;;;;;;4620838;30;118293;-80
2023/10/20 11:19:20;;;;;;;;;;;18.60;64.00;;;;;;4636467;30;114576;-82
2023/10/20 11:21:51;;;;;;;;;;;18.60;63.80;;;;;;4636687;30;114428;-82
2023/10/20 11:24:25;;;;;;;;;;;18.70;63.30;;;;;;4637442;30;114553;-82
2023/10/20 11:26:57;;;;;;;;;;;18.70;63.30;;;;;;4648447;30;115344;-83
2023/10/20 11:29:28;;;;;;;;;;;18.80;63.30;;;;;;4633726;30;117435;-83
2023/10/20 11:32:07;;;;;;;;;;;18.80;62.50;;;;;;4635414;30;114635;-84
2023/10/20 11:34:34;;;;;;;;;;;18.80;62.90;;;;;;4635819;30;114595;-83
2023/10/20 11:37:02;;;;;;;;;;;18.80;62.90;;;;;;4635721;30;115187;-84
2023/10/20 11:39:30;;;;;;;;;;;18.80;62.90;;;;;;4634413;30;115553;-84
2023/10/20 11:41:57;;;;;;;;;;;18.80;62.80;;;;;;4635123;30;114584;-86
2023/10/20 11:44:24;;;;;;;;;;;18.80;62.80;;;;;;4636991;30;114436;-83
2023/10/20 11:46:53;;;;;;;;;;;18.80;62.70;;;;;;4635846;30;118087;-82
2023/10/20 11:49:26;;;;;;;;;;;18.80;62.70;;;;;;4635879;30;118155;-81
2023/10/20 11:51:55;;;;;;;;;;;18.80;62.70;;;;;;4652356;30;114555;-82
2023/10/20 11:54:22;;;;;;;;;;;18.80;62.30;;;;;;4637084;30;114513;-82
2023/10/20 11:56:50;;;;;;;;;;;18.80;62.50;;;;;;4649072;30;114892;-81
2023/10/20 11:59:17;;;;;;;;;;;18.80;62.50;;;;;;4650006;30;115955;-83
2023/10/20 12:01:44;;;;;;;;;;;18.80;62.70;;;;;;4637148;30;114294;-82
2023/10/20 12:04:11;;;;;;;;;;;18.70;62.60;;;;;;4635813;30;114758;-84
2023/10/20 12:06:39;;;;;;;;;;;18.70;62.50;;;;;;4633882;30;118421;-82
2023/10/20 12:09:08;;;;;;;;;;;18.80;62.40;;;;;;4648133;30;114623;-83
2023/10/20 12:11:38;;;;;;;;;;;18.80;62.50;;;;;;4635947;30;114492;-83
2023/10/20 12:14:05;;;;;;;;;;;18.90;62.10;;;;;;4635367;30;114570;-83
2023/10/20 12:16:32;;;;;;;;;;;18.90;62.10;;;;;;4636150;30;114932;-83
2023/10/20 12:19:03;;;;;;;;;;;19.00;62.10;;;;;;4637189;30;114627;-82
2023/10/20 12:21:31;;;;;;;;;;;19.00;62.10;;;;;;4650002;30;114428;-83
2023/10/20 12:23:58;;;;;;;;;;;19.10;62.00;;;;;;4637530;30;114312;-83
2023/10/20 12:26:26;;;;;;;;;;;19.10;62.00;;;;;;4636837;30;115061;-81
2023/10/20 12:28:53;;;;;;;;;;;19.20;62.00;;;;;;4636159;30;114702;-82
2023/10/20 12:31:21;;;;;;;;;;;19.20;61.80;;;;;;4636240;30;114281;-83
2023/10/20 12:33:49;;;;;;;;;;;19.20;61.60;;;;;;4634855;30;114463;-83
2023/10/20 12:36:16;;;;;;;;;;;19.20;61.60;;;;;;4634274;30;119203;-82
2023/10/20 12:38:47;;;;;;;;;;;19.20;61.50;;;;;;4634431;30;114643;-82
2023/10/20 12:41:14;;;;;;;;;;;19.20;61.30;;;;;;4614704;30;114763;-82
2023/10/20 12:43:41;;;;;;;;;;;19.30;61.30;;;;;;4648396;30;114575;-83
2023/10/20 12:46:11;;;;;;;;;;;19.30;61.10;;;;;;4633309;30;114993;-82
2023/10/20 12:48:41;;;;;;;;;;;19.30;61.10;;;;;;4635341;30;115167;-81
2023/10/20 12:51:11;;;;;;;;;;;19.30;60.80;;;;;;4634806;30;114357;-83
2023/10/20 12:53:42;;;;;;;;;;;19.30;60.70;;;;;;4648993;30;114357;-83
2023/10/20 12:56:09;;;;;;;;;;;19.30;60.90;;;;;;4633855;30;114968;-83
2023/10/20 12:58:36;;;;;;;;;;;19.30;60.60;;;;;;4633819;30;114924;-83
2023/10/20 13:01:03;;;;;;;;;;;19.30;60.30;;;;;;4635980;30;114357;-82
2023/10/20 13:03:30;;;;;;;;;;;19.30;60.50;;;;;;4636072;30;114548;-82
2023/10/20 13:05:57;;;;;;;;;;;19.30;60.20;;;;;;4647978;30;115105;-83
2023/10/20 13:08:25;;;;;;;;;;;19.30;60.10;;;;;;4648254;30;114611;-82
2023/10/20 13:10:52;;;;;;;;;;;19.30;60.00;;;;;;4635366;30;114586;-82
2023/10/20 13:13:19;;;;;;;;;;;19.30;59.90;;;;;;4635254;30;114509;-83
2023/10/20 13:15:46;;;;;;;;;;;19.30;60.00;;;;;;4634882;30;115036;-83
2023/10/20 13:18:13;;;;;;;;;;;19.30;59.80;;;;;;4633451;30;115264;-83
2023/10/20 13:20:43;;;;;;;;;;;19.30;59.60;;;;;;4633855;30;114291;-83
2023/10/20 13:23:14;;;;;;;;;;;19.30;59.50;;;;;;4634476;30;114314;-83
2023/10/20 13:25:42;;;;;;;;;;;19.30;59.20;;;;;;4634851;30;115078;-83
2023/10/20 13:28:09;;;;;;;;;;;19.30;59.20;;;;;;4635339;30;114714;-82
2023/10/20 13:30:38;;;;;;;;;;;19.40;59.30;;;;;;4565108;30;2181143;-83
2023/10/20 13:33:05;;;;;;;;;;;19.30;59.20;;;;;;4636756;30;114863;-83
2023/10/20 13:35:40;;;;;;;;;;;19.30;59.00;;;;;;4635750;30;115042;-82
2023/10/20 13:38:08;;;;;;;;;;;19.40;59.10;;;;;;4634599;30;114706;-82
2023/10/20 13:40:38;;;;;;;;;;;19.30;59.20;;;;;;4649390;30;114220;-81
2023/10/20 13:43:05;;;;;;;;;;;19.30;59.10;;;;;;4637802;30;114353;-82
2023/10/20 13:45:32;;;;;;;;;;;19.30;59.30;;;;;;4649759;30;114315;-82
2023/10/20 13:47:59;;;;;;;;;;;19.30;59.20;;;;;;4635848;30;114514;-83
2023/10/20 13:50:27;;;;;;;;;;;19.30;59.10;;;;;;4647679;30;114394;-82
2023/10/20 13:52:54;;;;;;;;;;;19.30;59.10;;;;;;4637796;30;114700;-83
2023/10/20 13:55:22;;;;;;;;;;;19.30;59.10;;;;;;4634576;30;114942;-83
2023/10/20 13:57:49;;;;;;;;;;;19.30;59.10;;;;;;4634320;30;117827;-83
2023/10/20 14:00:16;;;;;;;;;;;19.30;58.70;;;;;;4635979;30;114205;-82
2023/10/20 14:02:47;;;;;;;;;;;19.30;58.80;;;;;;4635420;30;116420;-82
2023/10/20 14:05:18;;;;;;;;;;;19.30;58.50;;;;;;4635006;30;115099;-82
2023/10/20 14:07:46;;;;;;;;;;;19.40;58.60;;;;;;4635526;30;114656;-83
2023/10/20 14:10:13;;;;;;;;;;;19.40;58.50;;;;;;4626561;30;114305;-83
2023/10/20 14:12:40;;;;;;;;;;;19.30;58.50;;;;;;4634532;30;114453;-83
2023/10/20 14:15:07;;;;;;;;;;;19.40;58.10;;;;;;4635208;30;115293;-83
2023/10/20 14:17:34;;;;;;;;;;;19.40;58.20;;;;;;4622530;30;114769;-83
2023/10/20 14:20:02;;;;;;;;;;;19.40;58.00;;;;;;4625522;30;114242;-83
2023/10/20 14:22:29;;;;;;;;;;;19.50;57.70;;;;;;4626318;30;114616;-83
2023/10/20 14:24:57;;;;;;;;;;;19.50;57.90;;;;;;4635548;30;115089;-82
2023/10/20 14:27:24;;;;;;;;;;;19.50;57.40;;;;;;4624728;30;114554;-83
2023/10/20 14:29:51;;;;;;;;;;;19.50;57.60;;;;;;4621785;30;114281;-83
2023/10/20 14:32:18;;;;;;;;;;;19.40;57.70;;;;;;4650210;30;114424;-82
2023/10/20 14:34:45;;;;;;;;;;;19.50;56.80;;;;;;4651666;30;114857;-83
2023/10/20 14:37:12;;;;;;;;;;;19.50;56.90;;;;;;4635566;30;114793;-83
2023/10/20 14:39:41;;;;;;;;;;;19.50;56.90;;;;;;4639173;30;114438;-83
2023/10/20 14:42:08;;;;;;;;;;;19.50;56.50;;;;;;4639322;30;114431;-83
2023/10/20 14:44:35;;;;;;;;;;;19.60;56.40;;;;;;4636824;30;115250;-82
2023/10/20 14:47:02;;;;;;;;;;;19.60;56.40;;;;;;4637987;30;114614;-82
2023/10/20 14:49:31;;;;;;;;;;;19.60;56.40;;;;;;4636900;30;114491;-83
2023/10/20 14:52:00;;;;;;;;;;;19.60;56.50;;;;;;4638715;30;114333;-84
2023/10/20 14:54:27;;;;;;;;;;;19.60;56.00;;;;;;4636748;30;116242;-82